createdAt,value
2022-10-31T00:00:39.847Z,7.85
2022-10-31T00:05:44.945Z,8.35
2022-10-31T00:10:40.722Z,10.23
2022-10-31T00:15:44.764Z,12.13
2022-10-31T00:20:41.980Z,9.95
2022-10-31T00:25:50.502Z,9.45
2022-10-31T00:31:03.787Z,9.05
2022-10-31T00:36:30.342Z,9.27
2022-10-31T00:41:29.217Z,9.80
2022-10-31T00:46:38.945Z,9.70
2022-10-31T00:51:42.417Z,9.80
2022-10-31T00:56:50.510Z,10.18
2022-10-31T01:01:51.369Z,11.45
2022-10-31T01:06:45.424Z,9.75
2022-10-31T01:11:45.725Z,8.57
2022-10-31T01:16:42.766Z,8.05
2022-10-31T01:21:45.958Z,7.97
2022-10-31T01:26:53.073Z,7.85
2022-10-31T01:31:52.493Z,8.40
2022-10-31T01:36:52.605Z,8.18
2022-10-31T01:46:48.196Z,7.95
2022-10-31T01:51:57.353Z,7.82
2022-10-31T01:56:59.877Z,8.55
2022-10-31T02:01:59.395Z,8.43
2022-10-31T02:07:29.085Z,8.50
2022-10-31T02:12:32.519Z,8.13
2022-10-31T02:17:33.622Z,8.40
2022-10-31T02:22:32.854Z,8.32
2022-10-31T02:28:01.703Z,7.55
2022-10-31T02:33:19.081Z,8.20
2022-10-31T02:38:29.414Z,9.13
2022-10-31T02:43:39.498Z,9.68
2022-10-31T02:48:46.964Z,8.55
2022-10-31T02:53:41.029Z,8.85
2022-10-31T02:58:43.727Z,8.48
2022-10-31T03:04:00.804Z,8.73
2022-10-31T03:09:13.501Z,9.27
2022-10-31T03:14:38.505Z,8.43
2022-10-31T03:19:47.034Z,8.77
2022-10-31T03:24:43.390Z,8.82
2022-10-31T03:29:44.959Z,8.05
2022-10-31T03:34:47.863Z,8.57
2022-10-31T03:39:46.146Z,9.93
2022-10-31T03:44:54.877Z,10.03
2022-10-31T03:50:16.393Z,9.93
2022-10-31T03:55:31.557Z,9.73
2022-10-31T04:00:59.856Z,11.00
2022-10-31T04:26:58.787Z,13.65
2022-10-31T04:37:05.511Z,13.45
2022-10-31T04:42:16.778Z,13.02
2022-10-31T04:47:13.830Z,13.02
2022-10-31T04:52:24.800Z,13.43
2022-10-31T05:29:17.652Z,13.02
2022-10-31T05:34:10.949Z,11.95
2022-10-31T05:39:20.698Z,12.40
2022-10-31T05:44:18.238Z,13.63
2022-10-31T05:49:30.151Z,16.35
2022-10-31T05:54:29.517Z,17.08
2022-10-31T05:59:24.447Z,15.40
2022-10-31T06:04:17.954Z,14.20
2022-10-31T06:09:15.595Z,13.52
2022-10-31T06:14:14.814Z,12.48
2022-10-31T06:19:20.538Z,12.55
2022-10-31T06:24:16.045Z,12.88
2022-10-31T06:29:27.682Z,12.63
2022-10-31T06:34:53.665Z,15.43
2022-10-31T06:39:47.492Z,12.88
2022-10-31T06:44:42.980Z,13.07
2022-10-31T06:49:58.619Z,12.55
2022-10-31T06:54:52.949Z,12.60
2022-10-31T06:59:51.032Z,12.23
2022-10-31T07:04:58.094Z,14.23
2022-10-31T07:09:51.641Z,14.45
2022-10-31T07:14:57.042Z,14.02
2022-10-31T07:19:54.736Z,13.88
2022-10-31T07:24:49.801Z,13.25
2022-10-31T07:30:01.939Z,13.82
2022-10-31T07:34:57.384Z,14.60
2022-10-31T07:40:04.857Z,16.33
2022-10-31T07:45:03.123Z,14.00
2022-10-31T07:50:17.707Z,14.88
2022-10-31T07:55:27.367Z,14.73
2022-10-31T08:00:24.083Z,14.25
2022-10-31T08:05:21.353Z,13.65
2022-10-31T08:10:48.667Z,13.15
2022-10-31T08:15:50.975Z,12.93
2022-10-31T08:20:52.069Z,14.45
2022-10-31T08:25:48.024Z,14.15
2022-10-31T08:30:51.618Z,14.30
2022-10-31T08:36:17.983Z,15.88
2022-10-31T08:41:36.657Z,14.40
2022-10-31T08:46:32.803Z,14.23
2022-10-31T08:51:28.929Z,13.63
2022-10-31T08:56:31.780Z,14.52
2022-10-31T09:01:30.170Z,13.63
2022-10-31T09:06:25.076Z,12.93
2022-10-31T09:11:26.173Z,13.10
2022-10-31T09:16:47.024Z,12.23
2022-10-31T09:21:54.648Z,12.95
2022-10-31T09:28:33.038Z,11.00
2022-10-31T10:23:33.365Z,9.77
2022-10-31T10:35:54.442Z,10.63
2022-10-31T12:00:15.228Z,6.65
2022-10-31T12:13:25.568Z,6.90
2022-10-31T12:20:25.905Z,6.88
2022-10-31T12:26:55.717Z,6.32
2022-10-31T12:33:09.058Z,6.57
2022-10-31T12:39:00.558Z,6.18
2022-10-31T12:58:22.858Z,6.80
2022-10-31T13:24:28.994Z,7.00
2022-10-31T13:44:22.073Z,6.05
2022-10-31T13:57:05.387Z,6.60
2022-10-31T14:15:34.273Z,6.78
2022-10-31T14:27:55.863Z,7.72
2022-10-31T14:33:51.434Z,8.85
2022-10-31T14:39:22.197Z,9.68
2022-10-31T14:44:51.586Z,11.02
2022-10-31T14:50:16.563Z,9.43
2022-10-31T14:55:54.390Z,10.27
2022-10-31T15:01:16.668Z,8.93
2022-10-31T15:06:26.847Z,9.50
2022-10-31T15:11:30.857Z,9.32
2022-10-31T15:21:36.063Z,11.07
2022-10-31T15:26:36.514Z,10.65
2022-10-31T15:31:41.927Z,10.48
2022-10-31T15:36:52.557Z,12.10
2022-10-31T15:42:09.006Z,11.25
2022-10-31T15:47:17.976Z,11.63
2022-10-31T15:53:48.755Z,12.18
2022-10-31T16:31:00.699Z,11.52
2022-10-31T16:42:12.377Z,12.75
2022-10-31T16:55:00.215Z,13.23
2022-10-31T17:00:10.642Z,18.08
2022-10-31T17:05:48.249Z,17.48
2022-10-31T17:11:37.414Z,16.15
2022-10-31T17:17:34.474Z,15.18
2022-10-31T17:30:04.434Z,19.95
2022-10-31T17:35:21.474Z,23.40
2022-10-31T18:00:35.151Z,24.52
2022-10-31T18:13:16.315Z,18.13
2022-10-31T18:25:49.888Z,18.60
2022-10-31T18:32:26.010Z,18.70
2022-10-31T18:39:40.801Z,18.88
2022-10-31T18:44:46.743Z,19.95
2022-10-31T19:08:58.377Z,19.20
2022-10-31T19:14:40.603Z,19.20
2022-10-31T19:51:13.546Z,16.10
2022-10-31T20:03:27.760Z,16.98
2022-10-31T20:08:27.388Z,17.13
2022-10-31T20:26:04.265Z,23.02
2022-10-31T20:32:10.558Z,17.13
2022-10-31T20:43:40.149Z,14.38
2022-10-31T20:48:50.353Z,14.60
2022-10-31T20:54:00.565Z,13.98
2022-10-31T20:59:40.622Z,13.20
2022-10-31T21:05:30.674Z,10.65
2022-10-31T21:11:23.842Z,11.73
2022-10-31T21:16:53.753Z,11.65
2022-10-31T21:22:30.343Z,10.00
2022-10-31T21:27:58.260Z,10.75
2022-10-31T21:33:35.099Z,11.43
2022-10-31T22:00:23.735Z,12.65
2022-10-31T22:06:27.088Z,13.68
2022-10-31T22:23:53.762Z,14.82
2022-10-31T22:28:59.291Z,15.02
2022-10-31T22:34:03.606Z,14.93
2022-10-31T22:39:09.216Z,14.25
2022-10-31T22:44:23.776Z,15.50
2022-10-31T22:50:11.529Z,13.50
2022-10-31T23:01:30.780Z,15.00
2022-10-31T23:06:52.747Z,14.98
2022-10-31T23:11:46.663Z,14.48
2022-10-31T23:22:48.120Z,14.50
2022-10-31T23:28:17.716Z,14.98
2022-10-31T23:34:06.822Z,14.32
2022-10-31T23:52:01.662Z,17.63
2022-10-31T23:58:03.721Z,14.57
